createdAt,value
2024-02-24T00:01:53.773Z,98246.84
2024-02-24T00:04:21.633Z,98245.63
2024-02-24T00:06:49.406Z,98250.94
2024-02-24T00:09:17.447Z,98255.22
2024-02-24T00:11:45.320Z,98257.06
2024-02-24T00:14:14.589Z,98262.56
2024-02-24T00:16:42.422Z,98267.50
2024-02-24T00:19:10.132Z,98264.63
2024-02-24T00:21:38.071Z,98261.34
2024-02-24T00:24:06.383Z,98260.53
2024-02-24T00:26:34.066Z,98262.16
2024-02-24T00:29:01.915Z,98255.81
2024-02-24T00:31:30.922Z,98258.06
2024-02-24T00:33:58.709Z,98255.00
2024-02-24T00:36:26.411Z,98256.84
2024-02-24T00:38:54.286Z,98261.75
2024-02-24T00:41:21.964Z,98265.44
2024-02-24T00:43:49.681Z,98271.56
2024-02-24T00:46:17.274Z,98263.38
2024-02-24T00:48:46.444Z,98273.19
2024-02-24T00:51:14.383Z,98276.66
2024-02-24T00:53:42.256Z,98281.16
2024-02-24T00:56:10.095Z,98275.84
2024-02-24T00:58:38.208Z,98281.34
2024-02-24T01:01:07.483Z,98285.44
2024-02-24T01:03:35.369Z,98285.22
2024-02-24T01:06:04.738Z,98285.44
2024-02-24T01:08:32.756Z,98286.25
2024-02-24T01:11:00.563Z,98267.66
2024-02-24T01:13:28.347Z,98275.44
2024-02-24T01:15:56.092Z,98274.19
2024-02-24T01:18:24.884Z,98262.34
2024-02-24T01:20:53.329Z,98266.88
2024-02-24T01:23:23.872Z,98270.53
2024-02-24T01:25:51.551Z,98278.28
2024-02-24T01:28:19.362Z,98281.56
2024-02-24T01:30:46.926Z,98284.63
2024-02-24T01:33:14.839Z,98288.94
2024-02-24T01:35:42.627Z,98290.34
2024-02-24T01:38:10.954Z,98290.56
2024-02-24T01:40:39.881Z,98292.22
2024-02-24T01:43:25.660Z,98288.72
2024-02-24T01:45:55.470Z,98286.91
2024-02-24T01:48:23.091Z,98285.44
2024-02-24T01:50:51.757Z,98282.81
2024-02-24T01:53:20.665Z,98282.16
2024-02-24T01:55:50.497Z,98282.59
2024-02-24T01:58:19.731Z,98286.47
2024-02-24T02:00:47.796Z,98287.50
2024-02-24T02:03:15.686Z,98299.34
2024-02-24T02:05:43.709Z,98290.38
2024-02-24T02:08:11.445Z,98285.84
2024-02-24T02:10:46.429Z,98291.53
2024-02-24T02:13:15.432Z,98282.34
2024-02-24T02:15:43.252Z,98281.50
2024-02-24T02:18:11.268Z,98281.50
2024-02-24T02:20:39.016Z,98277.44
2024-02-24T02:23:08.135Z,98288.47
2024-02-24T02:25:35.975Z,98277.00
2024-02-24T02:28:03.671Z,98285.59
2024-02-24T02:30:31.261Z,98282.75
2024-02-24T02:32:59.081Z,98285.19
2024-02-24T02:35:27.071Z,98284.16
2024-02-24T02:37:54.726Z,98286.22
2024-02-24T02:40:23.618Z,98285.78
2024-02-24T02:42:51.140Z,98283.94
2024-02-24T02:45:18.806Z,98290.91
2024-02-24T02:47:46.474Z,98287.81
2024-02-24T02:50:14.238Z,98291.72
2024-02-24T02:52:41.949Z,98290.06
2024-02-24T02:55:10.369Z,98294.97
2024-02-24T02:57:39.364Z,98293.53
2024-02-24T03:00:08.318Z,98293.53
2024-02-24T03:02:36.159Z,98292.09
2024-02-24T03:05:03.956Z,98297.00
2024-02-24T03:07:31.743Z,98299.44
2024-02-24T03:09:59.542Z,98295.34
2024-02-24T03:12:27.224Z,98298.88
2024-02-24T03:14:56.299Z,98300.34
2024-02-24T03:17:23.950Z,98299.69
2024-02-24T03:19:51.561Z,98309.31
2024-02-24T03:22:19.174Z,98311.34
2024-02-24T03:24:46.747Z,98311.75
2024-02-24T03:27:14.920Z,98306.63
2024-02-24T03:29:42.689Z,98296.81
2024-02-24T03:32:11.815Z,98305.44
2024-02-24T03:34:39.494Z,98307.06
2024-02-24T03:37:07.324Z,98310.31
2024-02-24T03:39:33.943Z,98313.34
2024-02-24T03:42:01.629Z,98312.94
2024-02-24T03:44:29.391Z,98318.66
2024-02-24T03:46:57.050Z,98322.31
2024-02-24T03:49:26.121Z,98322.53
2024-02-24T03:51:53.996Z,98322.91
2024-02-24T03:54:22.502Z,98327.88
2024-02-24T03:56:51.354Z,98329.72
2024-02-24T03:59:19.274Z,98328.50
2024-02-24T04:01:47.130Z,98325.41
2024-02-24T04:04:15.045Z,98329.31
2024-02-24T04:06:45.768Z,98330.13
2024-02-24T04:09:14.195Z,98314.56
2024-02-24T04:11:42.075Z,98323.44
2024-02-24T04:14:10.255Z,98326.91
2024-02-24T04:16:37.880Z,98338.78
2024-02-24T04:19:05.605Z,98336.94
2024-02-24T04:21:33.325Z,98342.66
2024-02-24T04:24:02.207Z,98346.34
2024-02-24T04:26:29.861Z,98355.56
2024-02-24T04:28:57.518Z,98348.41
2024-02-24T04:31:25.165Z,98342.72
2024-02-24T04:33:52.952Z,98345.97
2024-02-24T04:36:20.694Z,98352.94
2024-02-24T04:38:48.799Z,98349.88
2024-02-24T04:41:17.804Z,98352.09
2024-02-24T04:43:45.374Z,98357.44
2024-02-24T04:46:12.996Z,98360.69
2024-02-24T04:48:40.942Z,98356.59
2024-02-24T04:51:08.733Z,98355.59
2024-02-24T04:53:36.386Z,98354.16
2024-02-24T04:56:04.347Z,98368.88
2024-02-24T04:58:33.456Z,98359.47
2024-02-24T05:01:01.171Z,98359.66
2024-02-24T05:03:28.875Z,98360.66
2024-02-24T05:05:56.575Z,98365.38
2024-02-24T05:08:24.394Z,98373.28
2024-02-24T05:10:52.201Z,98375.34
2024-02-24T05:13:19.839Z,98376.78
2024-02-24T05:15:48.784Z,98389.00
2024-02-24T05:18:16.618Z,98391.06
2024-02-24T05:20:44.488Z,98393.31
2024-02-24T05:23:12.137Z,98386.56
2024-02-24T05:25:39.752Z,98400.63
2024-02-24T05:28:07.579Z,98391.25
2024-02-24T05:30:35.290Z,98386.53
2024-02-24T05:33:04.639Z,98375.25
2024-02-24T05:35:32.463Z,98370.16
2024-02-24T05:38:00.244Z,98376.06
2024-02-24T05:40:28.465Z,98386.28
2024-02-24T05:42:56.252Z,98398.75
2024-02-24T05:45:23.885Z,98410.78
2024-02-24T05:47:51.737Z,98411.53
2024-02-24T05:50:21.119Z,98412.53
2024-02-24T05:52:48.900Z,98422.59
2024-02-24T05:55:16.525Z,98424.88
2024-02-24T05:57:46.039Z,98425.28
2024-02-24T06:00:15.313Z,98428.22
2024-02-24T06:02:43.007Z,98433.34
2024-02-24T06:05:10.741Z,98439.09
2024-02-24T06:07:40.564Z,98431.38
2024-02-24T06:10:09.651Z,98430.56
2024-02-24T06:12:37.216Z,98445.88
2024-02-24T06:15:05.431Z,98434.44
2024-02-24T06:17:34.087Z,98438.13
2024-02-24T06:20:01.767Z,98447.16
2024-02-24T06:22:29.574Z,98442.66
2024-02-24T06:24:58.676Z,98441.44
2024-02-24T06:27:26.226Z,98440.47
2024-02-24T06:29:53.875Z,98443.53
2024-02-24T06:32:21.642Z,98447.81
2024-02-24T06:34:49.296Z,98461.94
2024-02-24T06:37:16.989Z,98464.22
2024-02-24T06:39:44.622Z,98462.56
2024-02-24T06:42:13.742Z,98468.91
2024-02-24T06:44:42.699Z,98464.84
2024-02-24T06:47:20.600Z,98467.72
2024-02-24T06:49:53.065Z,98466.47
2024-02-24T06:52:21.123Z,98465.88
2024-02-24T06:54:48.843Z,98469.13
2024-02-24T06:57:17.875Z,98477.09
2024-02-24T06:59:46.417Z,98480.41
2024-02-24T07:02:14.135Z,98484.47
2024-02-24T07:04:42.873Z,98487.75
2024-02-24T07:07:10.673Z,98489.81
2024-02-24T07:09:38.468Z,98491.66
2024-02-24T07:12:07.740Z,98502.69
2024-02-24T07:14:37.272Z,98496.13
2024-02-24T07:17:05.385Z,98498.34
2024-02-24T07:19:33.084Z,98497.91
2024-02-24T07:22:00.812Z,98503.84
2024-02-24T07:24:28.647Z,98504.31
2024-02-24T07:26:56.366Z,98507.19
2024-02-24T07:29:24.104Z,98511.69
2024-02-24T07:31:53.895Z,98518.03
2024-02-24T07:34:21.743Z,98530.31
2024-02-24T07:36:49.543Z,98529.66
2024-02-24T07:39:17.216Z,98528.84
2024-02-24T07:41:45.068Z,98528.25
2024-02-24T07:44:12.889Z,98540.53
2024-02-24T07:46:40.764Z,98541.78
2024-02-24T07:49:10.081Z,98553.03
2024-02-24T07:51:40.376Z,98548.34
2024-02-24T07:54:08.101Z,98557.97
2024-02-24T07:56:35.784Z,98563.09
2024-02-24T07:59:03.679Z,98558.16
2024-02-24T08:01:31.915Z,98558.38
2024-02-24T08:03:59.605Z,98562.00
2024-02-24T08:06:29.088Z,98564.44
2024-02-24T08:08:57.246Z,98569.56
2024-02-24T08:11:25.461Z,98571.00
2024-02-24T08:13:53.149Z,98573.66
2024-02-24T08:16:23.668Z,98578.34
2024-02-24T08:18:51.394Z,98575.47
2024-02-24T08:21:19.118Z,98580.59
2024-02-24T08:23:48.322Z,98576.19
2024-02-24T08:26:16.078Z,98588.28
2024-02-24T08:28:44.004Z,98575.34
2024-02-24T08:31:11.829Z,98578.16
2024-02-24T08:33:43.530Z,98587.72
2024-02-24T08:36:16.028Z,98586.03
2024-02-24T08:38:43.863Z,98587.50
2024-02-24T08:41:12.942Z,98601.88
2024-02-24T08:43:40.675Z,98603.75
2024-02-24T08:46:10.466Z,98614.25
2024-02-24T08:48:39.844Z,98614.25
2024-02-24T08:51:07.900Z,98619.81
2024-02-24T08:53:35.605Z,98623.94
2024-02-24T08:56:03.264Z,98631.69
2024-02-24T08:58:32.229Z,98638.25
2024-02-24T09:00:59.836Z,98637.22
2024-02-24T09:03:27.509Z,98650.94
2024-02-24T09:05:55.250Z,98648.91
2024-02-24T09:08:23.069Z,98648.69
2024-02-24T09:10:53.724Z,98652.38
2024-02-24T09:13:22.073Z,98649.94
2024-02-24T09:15:51.080Z,98645.81
2024-02-24T09:18:19.117Z,98652.19
2024-02-24T09:20:48.063Z,98658.75
2024-02-24T09:23:15.967Z,98657.31
2024-02-24T09:25:43.726Z,98663.06
2024-02-24T09:28:12.128Z,98671.44
2024-02-24T09:30:39.794Z,98676.16
2024-02-24T09:33:09.173Z,98674.31
2024-02-24T09:35:37.062Z,98687.19
2024-02-24T09:38:05.044Z,98689.03
2024-02-24T09:40:32.701Z,98700.53
2024-02-24T09:43:05.395Z,98699.66
2024-02-24T09:45:36.550Z,98703.34
2024-02-24T09:48:05.338Z,98706.75
2024-02-24T09:50:34.883Z,98712.69
2024-02-24T09:53:02.706Z,98718.19
2024-02-24T09:55:30.506Z,98720.16
2024-02-24T09:57:59.160Z,98723.19
2024-02-24T10:00:27.013Z,98732.56
2024-02-24T10:02:54.979Z,98737.59
2024-02-24T10:05:23.191Z,98741.28
2024-02-24T10:07:52.383Z,98738.75
2024-02-24T10:10:20.333Z,98744.75
2024-02-24T10:12:58.514Z,98744.31
2024-02-24T10:15:26.982Z,98749.75
2024-02-24T10:17:59.429Z,98739.47
2024-02-24T10:20:27.451Z,98747.81
2024-02-24T10:22:57.078Z,98749.88
2024-02-24T10:25:25.031Z,98743.16
2024-02-24T10:27:53.733Z,98741.56
2024-02-24T10:30:24.288Z,98750.13
2024-02-24T10:32:54.609Z,98754.31
2024-02-24T10:35:23.209Z,98760.13
2024-02-24T10:38:10.878Z,98748.63
2024-02-24T10:40:46.968Z,98753.88
2024-02-24T10:43:15.158Z,98760.78
2024-02-24T10:45:43.038Z,98767.31
2024-02-24T10:48:10.850Z,98764.91
2024-02-24T10:50:40.551Z,98766.25
2024-02-24T10:53:11.205Z,98765.09
2024-02-24T10:55:41.070Z,98771.88
2024-02-24T10:58:11.467Z,98770.09
2024-02-24T11:00:46.427Z,98765.03
2024-02-24T11:03:15.478Z,98768.84
2024-02-24T11:05:48.023Z,98777.88
2024-02-24T11:08:38.992Z,98778.19
2024-02-24T11:11:10.153Z,98782.44
2024-02-24T11:13:52.317Z,98785.28
2024-02-24T11:16:29.021Z,98774.59
2024-02-24T11:18:57.323Z,98781.81
2024-02-24T11:21:58.505Z,98782.63
2024-02-24T11:24:32.074Z,98780.09
2024-02-24T11:26:59.896Z,98780.41
2024-02-24T11:29:29.417Z,98774.78
2024-02-24T11:32:14.073Z,98783.81
2024-02-24T11:34:45.311Z,98782.75
2024-02-24T11:37:17.252Z,98793.16
2024-02-24T11:39:46.333Z,98792.25
2024-02-24T11:42:14.807Z,98803.41
2024-02-24T11:44:47.782Z,98785.69
2024-02-24T11:47:18.663Z,98786.19
2024-02-24T11:49:48.466Z,98782.94
2024-02-24T11:52:17.490Z,98784.31
2024-02-24T11:54:46.238Z,98781.72
2024-02-24T11:57:14.736Z,98783.63
2024-02-24T11:59:43.107Z,98792.13
2024-02-24T12:02:16.179Z,98779.78
2024-02-24T12:04:44.042Z,98793.53
2024-02-24T12:07:12.886Z,98798.44
2024-02-24T12:09:41.284Z,98789.97
2024-02-24T12:12:09.632Z,98792.63
2024-02-24T12:14:37.702Z,98784.78
2024-02-24T12:17:05.862Z,98794.72
2024-02-24T12:19:38.592Z,98787.50
2024-02-24T12:22:09.804Z,98781.31
2024-02-24T12:24:39.035Z,98786.00
2024-02-24T12:27:10.113Z,98783.19
2024-02-24T12:29:38.519Z,98782.38
2024-02-24T12:32:07.385Z,98783.66
2024-02-24T12:34:36.586Z,98782.09
2024-02-24T12:37:05.346Z,98774.78
2024-02-24T12:39:35.533Z,98784.84
2024-02-24T12:42:03.261Z,98787.28
2024-02-24T12:44:31.860Z,98790.88
2024-02-24T12:47:00.257Z,98790.06
2024-02-24T12:49:28.002Z,98788.63
2024-02-24T12:51:56.976Z,98800.38
2024-02-24T12:54:24.775Z,98791.81
2024-02-24T12:56:52.506Z,98797.81
2024-02-24T12:59:22.474Z,98799.25
2024-02-24T13:01:50.377Z,98800.44
2024-02-24T13:04:18.285Z,98796.66
2024-02-24T13:06:46.094Z,98812.63
2024-02-24T13:09:15.933Z,98798.22
2024-02-24T13:11:43.729Z,98802.78
2024-02-24T13:14:11.532Z,98805.00
2024-02-24T13:16:39.365Z,98801.59
2024-02-24T13:19:07.259Z,98805.59
2024-02-24T13:21:35.094Z,98806.94
2024-02-24T13:24:03.047Z,98808.22
2024-02-24T13:26:32.344Z,98809.22
2024-02-24T13:29:00.083Z,98810.66
2024-02-24T13:31:30.029Z,98810.59
2024-02-24T13:33:58.510Z,98817.56
2024-02-24T13:36:27.996Z,98820.59
2024-02-24T13:38:56.690Z,98818.63
2024-02-24T13:41:24.784Z,98815.38
2024-02-24T13:43:54.280Z,98827.00
2024-02-24T13:46:22.156Z,98823.84
2024-02-24T13:48:50.442Z,98825.53
2024-02-24T13:51:18.306Z,98830.59
2024-02-24T13:53:46.364Z,98827.84
2024-02-24T13:56:14.784Z,98825.22
2024-02-24T13:58:42.973Z,98822.66
2024-02-24T14:01:12.194Z,98832.41
2024-02-24T14:03:39.947Z,98831.88
2024-02-24T14:06:08.330Z,98828.69
2024-02-24T14:08:36.300Z,98829.50
2024-02-24T14:11:04.311Z,98836.59
2024-02-24T14:13:33.289Z,98840.69
2024-02-24T14:16:01.128Z,98856.22
2024-02-24T14:18:30.455Z,98859.50
2024-02-24T14:20:59.160Z,98853.75
2024-02-24T14:23:27.662Z,98863.59
2024-02-24T14:25:55.455Z,98853.53
2024-02-24T14:28:23.419Z,98859.59
2024-02-24T14:30:53.885Z,98867.25
2024-02-24T14:33:23.696Z,98870.41
2024-02-24T14:35:53.041Z,98862.56
2024-02-24T14:38:20.790Z,98869.25
2024-02-24T14:40:50.294Z,98864.47
2024-02-24T14:43:18.108Z,98868.03
2024-02-24T14:45:45.808Z,98881.22
2024-02-24T14:48:13.762Z,98865.19
2024-02-24T14:50:41.792Z,98872.50
2024-02-24T14:53:10.974Z,98864.19
2024-02-24T14:55:39.008Z,98866.22
2024-02-24T14:58:06.689Z,98857.66
2024-02-24T15:00:34.563Z,98865.31
2024-02-24T15:03:09.647Z,98871.91
2024-02-24T15:05:38.952Z,98870.03
2024-02-24T15:08:07.584Z,98868.44
2024-02-24T15:10:36.892Z,98868.66
2024-02-24T15:13:04.918Z,98874.31
2024-02-24T15:15:32.675Z,98878.72
2024-02-24T15:18:04.606Z,98869.44
2024-02-24T15:20:33.100Z,98878.66
2024-02-24T15:23:01.127Z,98862.72
2024-02-24T15:25:29.528Z,98874.25
2024-02-24T15:27:59.175Z,98875.97
2024-02-24T15:30:27.215Z,98868.03
2024-02-24T15:32:58.775Z,98877.19
2024-02-24T15:35:27.515Z,98882.19
2024-02-24T15:37:55.251Z,98896.31
2024-02-24T15:40:22.830Z,98898.25
2024-02-24T15:42:50.726Z,98891.72
2024-02-24T15:45:21.962Z,98891.94
2024-02-24T15:47:49.691Z,98893.75
2024-02-24T15:50:19.535Z,98903.19
2024-02-24T15:52:47.632Z,98904.19
2024-02-24T15:55:15.755Z,98908.06
2024-02-24T15:57:47.122Z,98910.31
2024-02-24T16:00:15.458Z,98907.25
2024-02-24T16:02:45.615Z,98911.34
2024-02-24T16:05:13.759Z,98910.09
2024-02-24T16:07:42.565Z,98916.75
2024-02-24T16:10:10.990Z,98920.63
2024-02-24T16:12:38.632Z,98913.84
2024-02-24T16:15:07.443Z,98921.50
2024-02-24T16:17:36.173Z,98923.34
2024-02-24T16:20:06.025Z,98931.69
2024-02-24T16:22:33.817Z,98930.72
2024-02-24T16:25:01.477Z,98927.22
2024-02-24T16:27:29.127Z,98928.84
2024-02-24T16:29:56.915Z,98932.19
2024-02-24T16:32:24.944Z,98937.81
2024-02-24T16:34:53.319Z,98938.03
2024-02-24T16:37:23.303Z,98940.94
2024-02-24T16:39:51.166Z,98933.34
2024-02-24T16:42:19.322Z,98944.84
2024-02-24T16:44:47.976Z,98947.75
2024-02-24T16:47:16.015Z,98944.88
2024-02-24T16:49:43.897Z,98945.47
2024-02-24T16:52:11.893Z,98950.00
2024-02-24T16:54:41.134Z,98955.31
2024-02-24T16:57:10.235Z,98957.78
2024-02-24T16:59:39.536Z,98966.22
2024-02-24T17:02:07.781Z,98961.28
2024-02-24T17:04:37.508Z,98969.50
2024-02-24T17:07:05.872Z,98967.84
2024-02-24T17:09:33.761Z,98978.94
2024-02-24T17:12:03.936Z,98980.19
2024-02-24T17:14:32.110Z,98980.59
2024-02-24T17:16:59.993Z,98986.34
2024-02-24T17:19:27.967Z,98989.41
2024-02-24T17:21:55.845Z,98993.50
2024-02-24T17:24:23.803Z,99002.34
2024-02-24T17:26:55.792Z,99003.19
2024-02-24T17:29:25.255Z,99010.16
2024-02-24T17:31:53.122Z,99008.72
2024-02-24T17:34:21.122Z,99008.47
2024-02-24T17:36:50.013Z,99018.13
2024-02-24T17:39:17.916Z,99025.91
2024-02-24T17:41:45.764Z,99029.59
2024-02-24T17:44:13.708Z,99039.28
2024-02-24T17:46:43.061Z,99034.97
2024-02-24T17:49:10.906Z,99031.41
2024-02-24T17:51:39.049Z,99035.50
2024-02-24T17:54:06.957Z,99038.69
2024-02-24T17:56:36.118Z,99045.97
2024-02-24T17:59:04.065Z,99048.75
2024-02-24T18:01:31.935Z,99037.72
2024-02-24T18:04:01.234Z,99039.59
2024-02-24T18:06:29.368Z,99047.47
2024-02-24T18:08:57.787Z,99038.25
2024-02-24T18:11:26.245Z,99042.31
2024-02-24T18:13:54.180Z,99048.47
2024-02-24T18:16:22.091Z,99048.47
2024-02-24T18:18:49.960Z,99042.03
2024-02-24T18:21:20.412Z,99051.53
2024-02-24T18:23:48.291Z,99055.97
2024-02-24T18:26:16.134Z,99066.41
2024-02-24T18:28:44.230Z,99065.19
2024-02-24T18:31:12.231Z,99067.88
2024-02-24T18:33:40.079Z,99065.81
2024-02-24T18:36:08.814Z,99073.66
2024-02-24T18:38:37.756Z,99069.50
2024-02-24T18:41:06.187Z,99066.41
2024-02-24T18:43:34.728Z,99060.81
2024-02-24T18:46:02.668Z,99072.09
2024-02-24T18:48:30.626Z,99077.28
2024-02-24T18:50:59.462Z,99072.28
2024-02-24T18:53:32.391Z,99081.25
2024-02-24T18:56:02.088Z,99085.34
2024-02-24T18:58:31.209Z,99090.69
2024-02-24T19:01:01.610Z,99082.06
2024-02-24T19:03:29.828Z,99088.03
2024-02-24T19:05:58.308Z,99088.44
2024-02-24T19:08:26.152Z,99094.44
2024-02-24T19:10:53.897Z,99092.72
2024-02-24T19:13:22.971Z,99092.22
2024-02-24T19:15:54.503Z,99096.63
2024-02-24T19:18:22.406Z,99092.41
2024-02-24T19:20:50.072Z,99097.53
2024-02-24T19:23:19.168Z,99109.16
2024-02-24T19:25:47.043Z,99107.22
2024-02-24T19:28:14.937Z,99116.22
2024-02-24T19:30:44.129Z,99112.38
2024-02-24T19:33:12.147Z,99115.03
2024-02-24T19:35:42.380Z,99114.31
2024-02-24T19:38:11.934Z,99120.63
2024-02-24T19:40:41.646Z,99114.94
2024-02-24T19:43:10.489Z,99116.72
2024-02-24T19:45:38.414Z,99117.88
2024-02-24T19:48:08.965Z,99121.34
2024-02-24T19:50:36.748Z,99118.25
2024-02-24T19:53:04.624Z,99113.94
2024-02-24T19:55:32.359Z,99116.16
2024-02-24T19:58:00.543Z,99112.09
2024-02-24T20:00:29.841Z,99108.81
2024-02-24T20:02:57.853Z,99109.63
2024-02-24T20:05:27.160Z,99116.94
2024-02-24T20:07:57.788Z,99119.69
2024-02-24T20:10:27.445Z,99123.19
2024-02-24T20:12:55.236Z,99118.59
2024-02-24T20:15:23.011Z,99115.59
2024-02-24T20:17:50.804Z,99120.31
2024-02-24T20:20:18.529Z,99124.28
2024-02-24T20:22:47.589Z,99121.00
2024-02-24T20:25:15.547Z,99119.78
2024-02-24T20:27:43.383Z,99117.66
2024-02-24T20:30:14.849Z,99125.94
2024-02-24T20:32:42.572Z,99118.69
2024-02-24T20:35:11.178Z,99117.06
2024-02-24T20:37:38.930Z,99113.94
2024-02-24T20:40:09.657Z,99109.34
2024-02-24T20:42:37.467Z,99111.00
2024-02-24T20:45:06.223Z,99123.75
2024-02-24T20:47:33.978Z,99114.03
2024-02-24T20:50:01.691Z,99111.66
2024-02-24T20:52:29.480Z,99117.69
2024-02-24T20:54:57.449Z,99118.00
2024-02-24T20:57:26.407Z,99117.88
2024-02-24T20:59:54.245Z,99115.50
2024-02-24T21:02:22.041Z,99115.41
2024-02-24T21:04:49.616Z,99113.94
2024-02-24T21:07:17.286Z,99113.47
2024-02-24T21:09:45.182Z,99111.25
2024-02-24T21:12:13.469Z,99120.41
2024-02-24T21:14:42.670Z,99117.66
2024-02-24T21:17:10.386Z,99118.53
2024-02-24T21:19:38.029Z,99121.56
2024-02-24T21:22:07.940Z,99123.13
2024-02-24T21:24:36.771Z,99122.94
2024-02-24T21:27:04.886Z,99121.75
2024-02-24T21:29:32.831Z,99126.03
2024-02-24T21:32:02.215Z,99121.09
2024-02-24T21:34:31.285Z,99123.28
2024-02-24T21:36:59.060Z,99111.75
2024-02-24T21:39:27.344Z,99116.22
2024-02-24T21:41:55.590Z,99116.28
2024-02-24T21:44:23.457Z,99118.75
2024-02-24T21:46:51.167Z,99110.09
2024-02-24T21:49:20.485Z,99114.16
2024-02-24T21:51:48.314Z,99109.94
2024-02-24T21:54:16.408Z,99108.41
2024-02-24T21:56:47.587Z,99114.25
2024-02-24T21:59:15.245Z,99112.06
2024-02-24T22:01:43.064Z,99109.84
2024-02-24T22:04:10.733Z,99109.53
2024-02-24T22:06:40.269Z,99111.56
2024-02-24T22:09:08.887Z,99112.25
2024-02-24T22:11:39.751Z,99117.56
2024-02-24T22:14:07.568Z,99114.22
2024-02-24T22:16:35.380Z,99115.69
2024-02-24T22:19:03.499Z,99102.63
2024-02-24T22:21:33.518Z,99105.91
2024-02-24T22:24:02.674Z,99108.44
2024-02-24T22:26:30.663Z,99102.78
2024-02-24T22:28:58.402Z,99111.41
2024-02-24T22:31:26.343Z,99110.50
2024-02-24T22:33:54.215Z,99118.81
2024-02-24T22:36:23.752Z,99115.97
2024-02-24T22:38:53.085Z,99116.16
2024-02-24T22:41:23.678Z,99108.50
2024-02-24T22:43:52.336Z,99105.19
2024-02-24T22:46:21.376Z,99108.38
2024-02-24T22:48:49.490Z,99103.34
2024-02-24T22:51:19.257Z,99107.19
2024-02-24T22:53:46.997Z,99108.50
2024-02-24T22:56:14.764Z,99107.31
2024-02-24T22:58:45.858Z,99102.78
2024-02-24T23:01:13.738Z,99096.19
2024-02-24T23:03:41.336Z,99095.28
2024-02-24T23:06:09.236Z,99090.81
2024-02-24T23:08:37.286Z,99092.88
2024-02-24T23:11:05.389Z,99094.28
2024-02-24T23:13:33.549Z,99092.47
2024-02-24T23:16:02.853Z,99089.03
2024-02-24T23:18:31.011Z,99097.16
2024-02-24T23:20:58.934Z,99095.19
2024-02-24T23:23:26.990Z,99092.06
2024-02-24T23:25:54.944Z,99097.19
2024-02-24T23:28:22.837Z,99109.75
2024-02-24T23:30:50.587Z,99104.31
2024-02-24T23:33:20.165Z,99101.19
2024-02-24T23:35:47.884Z,99095.84
2024-02-24T23:38:15.598Z,99093.19
2024-02-24T23:40:45.441Z,99095.50
2024-02-24T23:43:13.323Z,99100.84
2024-02-24T23:45:44.343Z,99095.72
2024-02-24T23:48:12.329Z,99096.41
2024-02-24T23:50:41.736Z,99099.06
2024-02-24T23:53:09.389Z,99095.94
2024-02-24T23:55:37.097Z,99096.22
2024-02-24T23:58:06.624Z,99103.66
